sensor_id;sensor_type;location;lat;lon;timestamp;temperature;humidity
49379;DHT22;35254;47.990;-1.608;2022-08-19T00:00:24;20.40;65.60
49379;DHT22;35254;47.990;-1.608;2022-08-19T00:02:50;20.30;65.80
49379;DHT22;35254;47.990;-1.608;2022-08-19T00:05:16;20.30;66.20
49379;DHT22;35254;47.990;-1.608;2022-08-19T00:07:43;20.30;65.80
49379;DHT22;35254;47.990;-1.608;2022-08-19T00:10:10;20.30;66.10
49379;DHT22;35254;47.990;-1.608;2022-08-19T00:12:36;20.30;65.80
49379;DHT22;35254;47.990;-1.608;2022-08-19T00:15:05;20.20;66.00
49379;DHT22;35254;47.990;-1.608;2022-08-19T00:17:31;20.20;66.00
49379;DHT22;35254;47.990;-1.608;2022-08-19T00:19:57;20.20;66.10
49379;DHT22;35254;47.990;-1.608;2022-08-19T00:22:22;20.20;66.30
49379;DHT22;35254;47.990;-1.608;2022-08-19T00:24:48;20.10;66.30
49379;DHT22;35254;47.990;-1.608;2022-08-19T00:27:14;20.20;66.40
49379;DHT22;35254;47.990;-1.608;2022-08-19T00:29:40;20.10;67.70
49379;DHT22;35254;47.990;-1.608;2022-08-19T00:32:05;20.20;66.80
49379;DHT22;35254;47.990;-1.608;2022-08-19T00:34:32;20.10;66.70
49379;DHT22;35254;47.990;-1.608;2022-08-19T00:36:57;20.10;67.30
49379;DHT22;35254;47.990;-1.608;2022-08-19T00:39:25;20.10;68.20
49379;DHT22;35254;47.990;-1.608;2022-08-19T00:41:50;20.10;67.30
49379;DHT22;35254;47.990;-1.608;2022-08-19T00:44:19;20.10;67.20
49379;DHT22;35254;47.990;-1.608;2022-08-19T00:46:46;20.20;67.30
49379;DHT22;35254;47.990;-1.608;2022-08-19T00:51:53;20.10;67.80
49379;DHT22;35254;47.990;-1.608;2022-08-19T00:54:19;20.20;68.10
49379;DHT22;35254;47.990;-1.608;2022-08-19T00:56:47;20.20;68.30
49379;DHT22;35254;47.990;-1.608;2022-08-19T00:59:14;20.20;68.80
49379;DHT22;35254;47.990;-1.608;2022-08-19T01:01:42;20.30;68.30
49379;DHT22;35254;47.990;-1.608;2022-08-19T01:04:08;20.40;68.40
49379;DHT22;35254;47.990;-1.608;2022-08-19T01:06:35;20.40;68.60
49379;DHT22;35254;47.990;-1.608;2022-08-19T01:09:03;20.40;69.30
49379;DHT22;35254;47.990;-1.608;2022-08-19T01:11:30;20.40;70.00
49379;DHT22;35254;47.990;-1.608;2022-08-19T01:13:57;20.40;69.10
49379;DHT22;35254;47.990;-1.608;2022-08-19T01:16:26;20.40;69.90
49379;DHT22;35254;47.990;-1.608;2022-08-19T01:18:53;20.40;70.00
49379;DHT22;35254;47.990;-1.608;2022-08-19T01:23:53;20.40;70.30
49379;DHT22;35254;47.990;-1.608;2022-08-19T01:26:22;20.40;70.00
49379;DHT22;35254;47.990;-1.608;2022-08-19T01:28:50;20.40;70.30
49379;DHT22;35254;47.990;-1.608;2022-08-19T01:31:19;20.50;70.40
49379;DHT22;35254;47.990;-1.608;2022-08-19T01:33:47;20.50;72.10
49379;DHT22;35254;47.990;-1.608;2022-08-19T01:36:45;20.50;70.40
49379;DHT22;35254;47.990;-1.608;2022-08-19T01:39:13;20.50;71.10
49379;DHT22;35254;47.990;-1.608;2022-08-19T01:41:39;20.60;70.90
49379;DHT22;35254;47.990;-1.608;2022-08-19T01:44:08;20.60;71.00
49379;DHT22;35254;47.990;-1.608;2022-08-19T01:46:34;20.60;70.70
49379;DHT22;35254;47.990;-1.608;2022-08-19T01:49:00;20.70;71.00
49379;DHT22;35254;47.990;-1.608;2022-08-19T01:51:27;20.60;71.20
49379;DHT22;35254;47.990;-1.608;2022-08-19T01:53:53;20.60;71.20
49379;DHT22;35254;47.990;-1.608;2022-08-19T01:56:20;20.70;71.00
49379;DHT22;35254;47.990;-1.608;2022-08-19T01:58:51;20.70;72.40
49379;DHT22;35254;47.990;-1.608;2022-08-19T02:01:18;20.70;71.50
49379;DHT22;35254;47.990;-1.608;2022-08-19T02:03:43;20.60;71.30
49379;DHT22;35254;47.990;-1.608;2022-08-19T02:06:09;20.70;72.00
49379;DHT22;35254;47.990;-1.608;2022-08-19T02:08:37;20.70;71.30
49379;DHT22;35254;47.990;-1.608;2022-08-19T02:11:04;20.70;71.40
49379;DHT22;35254;47.990;-1.608;2022-08-19T02:13:30;20.70;71.60
49379;DHT22;35254;47.990;-1.608;2022-08-19T02:15:56;20.70;72.10
49379;DHT22;35254;47.990;-1.608;2022-08-19T02:18:23;20.70;72.00
49379;DHT22;35254;47.990;-1.608;2022-08-19T02:20:48;20.60;72.50
49379;DHT22;35254;47.990;-1.608;2022-08-19T02:23:15;20.70;72.00
49379;DHT22;35254;47.990;-1.608;2022-08-19T02:25:44;20.70;71.80
49379;DHT22;35254;47.990;-1.608;2022-08-19T02:28:10;20.70;72.10
49379;DHT22;35254;47.990;-1.608;2022-08-19T02:30:37;20.70;71.90
49379;DHT22;35254;47.990;-1.608;2022-08-19T02:33:04;20.60;72.30
49379;DHT22;35254;47.990;-1.608;2022-08-19T02:35:30;20.60;72.00
49379;DHT22;35254;47.990;-1.608;2022-08-19T02:37:56;20.60;72.50
49379;DHT22;35254;47.990;-1.608;2022-08-19T02:40:40;20.60;73.00
49379;DHT22;35254;47.990;-1.608;2022-08-19T02:43:14;20.60;72.10
49379;DHT22;35254;47.990;-1.608;2022-08-19T02:45:40;20.60;72.10
49379;DHT22;35254;47.990;-1.608;2022-08-19T02:48:06;20.60;72.30
49379;DHT22;35254;47.990;-1.608;2022-08-19T02:50:37;20.70;72.30
49379;DHT22;35254;47.990;-1.608;2022-08-19T02:53:03;20.60;72.30
49379;DHT22;35254;47.990;-1.608;2022-08-19T02:55:29;20.60;72.50
49379;DHT22;35254;47.990;-1.608;2022-08-19T02:57:54;20.60;72.70
49379;DHT22;35254;47.990;-1.608;2022-08-19T03:00:20;20.60;73.10
49379;DHT22;35254;47.990;-1.608;2022-08-19T03:02:46;20.60;72.50
49379;DHT22;35254;47.990;-1.608;2022-08-19T03:05:12;20.60;72.80
49379;DHT22;35254;47.990;-1.608;2022-08-19T03:07:38;20.60;73.00
49379;DHT22;35254;47.990;-1.608;2022-08-19T03:10:04;20.60;73.20
49379;DHT22;35254;47.990;-1.608;2022-08-19T03:12:31;20.60;72.80
49379;DHT22;35254;47.990;-1.608;2022-08-19T03:14:56;20.60;73.10
49379;DHT22;35254;47.990;-1.608;2022-08-19T03:17:22;20.50;73.00
49379;DHT22;35254;47.990;-1.608;2022-08-19T03:19:47;20.60;73.30
49379;DHT22;35254;47.990;-1.608;2022-08-19T03:22:13;20.60;73.60
49379;DHT22;35254;47.990;-1.608;2022-08-19T03:24:39;20.60;73.90
49379;DHT22;35254;47.990;-1.608;2022-08-19T03:27:05;20.60;73.50
49379;DHT22;35254;47.990;-1.608;2022-08-19T03:29:32;20.50;73.80
49379;DHT22;35254;47.990;-1.608;2022-08-19T03:32:04;20.60;73.60
49379;DHT22;35254;47.990;-1.608;2022-08-19T03:34:32;20.50;73.70
49379;DHT22;35254;47.990;-1.608;2022-08-19T03:37:04;20.60;73.80
49379;DHT22;35254;47.990;-1.608;2022-08-19T03:39:30;20.50;73.80
49379;DHT22;35254;47.990;-1.608;2022-08-19T03:41:56;20.60;73.90
49379;DHT22;35254;47.990;-1.608;2022-08-19T03:44:23;20.60;74.20
49379;DHT22;35254;47.990;-1.608;2022-08-19T03:46:56;20.50;75.30
49379;DHT22;35254;47.990;-1.608;2022-08-19T03:49:25;20.50;74.50
49379;DHT22;35254;47.990;-1.608;2022-08-19T03:51:53;20.50;75.30
49379;DHT22;35254;47.990;-1.608;2022-08-19T03:54:20;20.50;75.00
49379;DHT22;35254;47.990;-1.608;2022-08-19T03:56:50;20.40;75.30
49379;DHT22;35254;47.990;-1.608;2022-08-19T03:59:20;20.50;75.60
49379;DHT22;35254;47.990;-1.608;2022-08-19T04:01:46;20.50;75.10
49379;DHT22;35254;47.990;-1.608;2022-08-19T04:04:12;20.50;75.60
49379;DHT22;35254;47.990;-1.608;2022-08-19T04:06:38;20.50;75.60
49379;DHT22;35254;47.990;-1.608;2022-08-19T04:09:07;20.50;75.10
49379;DHT22;35254;47.990;-1.608;2022-08-19T04:11:54;20.50;75.10
49379;DHT22;35254;47.990;-1.608;2022-08-19T04:14:22;20.40;76.40
49379;DHT22;35254;47.990;-1.608;2022-08-19T04:16:49;20.40;76.10
49379;DHT22;35254;47.990;-1.608;2022-08-19T04:19:16;20.40;76.00
49379;DHT22;35254;47.990;-1.608;2022-08-19T04:21:47;20.40;77.10
49379;DHT22;35254;47.990;-1.608;2022-08-19T04:24:14;20.40;76.40
49379;DHT22;35254;47.990;-1.608;2022-08-19T04:26:40;20.40;76.90
49379;DHT22;35254;47.990;-1.608;2022-08-19T04:29:10;20.30;76.60
49379;DHT22;35254;47.990;-1.608;2022-08-19T04:31:36;20.40;77.20
49379;DHT22;35254;47.990;-1.608;2022-08-19T04:34:05;20.30;76.90
49379;DHT22;35254;47.990;-1.608;2022-08-19T04:36:33;20.20;77.20
49379;DHT22;35254;47.990;-1.608;2022-08-19T04:39:06;20.20;77.80
49379;DHT22;35254;47.990;-1.608;2022-08-19T04:41:33;20.20;77.70
49379;DHT22;35254;47.990;-1.608;2022-08-19T04:44:17;20.20;77.70
49379;DHT22;35254;47.990;-1.608;2022-08-19T04:46:44;20.10;78.20
49379;DHT22;35254;47.990;-1.608;2022-08-19T04:49:10;20.10;78.70
49379;DHT22;35254;47.990;-1.608;2022-08-19T04:51:39;20.10;78.50
49379;DHT22;35254;47.990;-1.608;2022-08-19T04:54:05;20.10;78.30
49379;DHT22;35254;47.990;-1.608;2022-08-19T04:56:31;20.20;78.20
49379;DHT22;35254;47.990;-1.608;2022-08-19T04:58:57;20.10;78.10
49379;DHT22;35254;47.990;-1.608;2022-08-19T05:01:27;20.10;79.10
49379;DHT22;35254;47.990;-1.608;2022-08-19T05:03:58;20.10;78.70
49379;DHT22;35254;47.990;-1.608;2022-08-19T05:06:24;20.10;78.20
49379;DHT22;35254;47.990;-1.608;2022-08-19T05:08:50;20.20;78.70
49379;DHT22;35254;47.990;-1.608;2022-08-19T05:11:22;20.10;79.50
49379;DHT22;35254;47.990;-1.608;2022-08-19T05:13:49;20.20;78.10
49379;DHT22;35254;47.990;-1.608;2022-08-19T05:16:17;20.20;79.00
49379;DHT22;35254;47.990;-1.608;2022-08-19T05:18:43;20.10;79.10
49379;DHT22;35254;47.990;-1.608;2022-08-19T05:21:28;20.10;78.50
49379;DHT22;35254;47.990;-1.608;2022-08-19T05:24:13;20.20;78.30
49379;DHT22;35254;47.990;-1.608;2022-08-19T05:26:42;20.20;78.90
49379;DHT22;35254;47.990;-1.608;2022-08-19T05:29:09;20.20;79.20
49379;DHT22;35254;47.990;-1.608;2022-08-19T05:31:36;20.10;78.80
49379;DHT22;35254;47.990;-1.608;2022-08-19T05:34:03;20.10;79.70
49379;DHT22;35254;47.990;-1.608;2022-08-19T05:36:35;20.10;79.50
49379;DHT22;35254;47.990;-1.608;2022-08-19T05:39:02;20.10;79.70
49379;DHT22;35254;47.990;-1.608;2022-08-19T05:41:29;20.10;79.90
49379;DHT22;35254;47.990;-1.608;2022-08-19T05:44:02;20.00;79.90
49379;DHT22;35254;47.990;-1.608;2022-08-19T05:46:28;20.10;80.20
49379;DHT22;35254;47.990;-1.608;2022-08-19T05:48:55;20.10;80.20
49379;DHT22;35254;47.990;-1.608;2022-08-19T05:51:22;20.10;80.00
49379;DHT22;35254;47.990;-1.608;2022-08-19T05:53:49;20.10;79.40
49379;DHT22;35254;47.990;-1.608;2022-08-19T05:56:16;20.10;79.20
49379;DHT22;35254;47.990;-1.608;2022-08-19T05:58:44;20.10;79.90
49379;DHT22;35254;47.990;-1.608;2022-08-19T06:01:12;20.20;79.50
49379;DHT22;35254;47.990;-1.608;2022-08-19T06:03:38;20.20;79.80
49379;DHT22;35254;47.990;-1.608;2022-08-19T06:06:06;20.20;79.80
49379;DHT22;35254;47.990;-1.608;2022-08-19T06:08:34;20.10;79.80
49379;DHT22;35254;47.990;-1.608;2022-08-19T06:11:19;20.20;79.40
49379;DHT22;35254;47.990;-1.608;2022-08-19T06:13:48;20.20;79.40
49379;DHT22;35254;47.990;-1.608;2022-08-19T06:16:17;20.20;79.00
49379;DHT22;35254;47.990;-1.608;2022-08-19T06:18:51;20.20;79.50
49379;DHT22;35254;47.990;-1.608;2022-08-19T06:21:19;20.20;79.10
49379;DHT22;35254;47.990;-1.608;2022-08-19T06:23:46;20.20;79.70
49379;DHT22;35254;47.990;-1.608;2022-08-19T06:26:13;20.20;79.80
49379;DHT22;35254;47.990;-1.608;2022-08-19T06:28:39;20.20;79.70
49379;DHT22;35254;47.990;-1.608;2022-08-19T06:31:22;20.20;79.80
49379;DHT22;35254;47.990;-1.608;2022-08-19T06:33:49;20.10;80.30
49379;DHT22;35254;47.990;-1.608;2022-08-19T06:38:47;20.10;80.10
49379;DHT22;35254;47.990;-1.608;2022-08-19T06:41:12;20.10;79.80
49379;DHT22;35254;47.990;-1.608;2022-08-19T06:43:38;20.20;79.90
49379;DHT22;35254;47.990;-1.608;2022-08-19T06:46:13;20.10;80.40
49379;DHT22;35254;47.990;-1.608;2022-08-19T06:48:39;20.10;80.50
49379;DHT22;35254;47.990;-1.608;2022-08-19T06:51:05;20.20;80.00
49379;DHT22;35254;47.990;-1.608;2022-08-19T06:53:31;20.20;80.20
49379;DHT22;35254;47.990;-1.608;2022-08-19T06:55:57;20.20;80.20
49379;DHT22;35254;47.990;-1.608;2022-08-19T06:58:30;20.20;80.30
49379;DHT22;35254;47.990;-1.608;2022-08-19T07:00:59;20.30;80.40
49379;DHT22;35254;47.990;-1.608;2022-08-19T07:03:27;20.30;80.40
49379;DHT22;35254;47.990;-1.608;2022-08-19T07:05:53;20.30;80.40
49379;DHT22;35254;47.990;-1.608;2022-08-19T07:08:19;20.30;80.50
49379;DHT22;35254;47.990;-1.608;2022-08-19T07:10:45;20.30;80.60
49379;DHT22;35254;47.990;-1.608;2022-08-19T07:13:11;20.40;80.70
49379;DHT22;35254;47.990;-1.608;2022-08-19T07:15:36;20.50;80.50
49379;DHT22;35254;47.990;-1.608;2022-08-19T07:20:39;20.60;80.50
49379;DHT22;35254;47.990;-1.608;2022-08-19T07:23:05;20.60;80.50
49379;DHT22;35254;47.990;-1.608;2022-08-19T07:25:31;20.60;80.70
49379;DHT22;35254;47.990;-1.608;2022-08-19T07:27:57;20.50;80.60
49379;DHT22;35254;47.990;-1.608;2022-08-19T07:30:23;20.50;80.80
49379;DHT22;35254;47.990;-1.608;2022-08-19T07:32:49;20.60;80.90
49379;DHT22;35254;47.990;-1.608;2022-08-19T07:35:17;20.60;81.10
49379;DHT22;35254;47.990;-1.608;2022-08-19T07:37:45;20.80;80.80
49379;DHT22;35254;47.990;-1.608;2022-08-19T07:40:12;20.90;80.40
49379;DHT22;35254;47.990;-1.608;2022-08-19T07:42:38;21.00;80.50
49379;DHT22;35254;47.990;-1.608;2022-08-19T07:45:06;21.00;80.50
49379;DHT22;35254;47.990;-1.608;2022-08-19T07:47:33;21.10;80.60
49379;DHT22;35254;47.990;-1.608;2022-08-19T07:49:59;21.20;80.30
49379;DHT22;35254;47.990;-1.608;2022-08-19T07:52:24;21.20;80.00
49379;DHT22;35254;47.990;-1.608;2022-08-19T07:54:50;21.20;80.00
49379;DHT22;35254;47.990;-1.608;2022-08-19T07:57:16;21.30;80.00
49379;DHT22;35254;47.990;-1.608;2022-08-19T07:59:44;21.30;80.10
49379;DHT22;35254;47.990;-1.608;2022-08-19T08:02:10;21.20;79.60
49379;DHT22;35254;47.990;-1.608;2022-08-19T08:04:36;21.20;79.90
49379;DHT22;35254;47.990;-1.608;2022-08-19T08:07:20;21.30;79.80
49379;DHT22;35254;47.990;-1.608;2022-08-19T08:10:07;21.30;79.90
49379;DHT22;35254;47.990;-1.608;2022-08-19T08:12:37;21.40;79.70
49379;DHT22;35254;47.990;-1.608;2022-08-19T08:15:10;21.20;79.70
49379;DHT22;35254;47.990;-1.608;2022-08-19T08:17:36;21.30;79.90
49379;DHT22;35254;47.990;-1.608;2022-08-19T08:20:04;21.30;80.00
49379;DHT22;35254;47.990;-1.608;2022-08-19T08:22:32;21.40;79.90
49379;DHT22;35254;47.990;-1.608;2022-08-19T08:25:19;21.40;79.70
49379;DHT22;35254;47.990;-1.608;2022-08-19T08:27:46;21.50;79.60
49379;DHT22;35254;47.990;-1.608;2022-08-19T08:30:23;21.50;79.90
49379;DHT22;35254;47.990;-1.608;2022-08-19T08:32:50;21.70;80.10
49379;DHT22;35254;47.990;-1.608;2022-08-19T08:35:20;21.90;80.40
49379;DHT22;35254;47.990;-1.608;2022-08-19T08:37:48;22.40;79.90
49379;DHT22;35254;47.990;-1.608;2022-08-19T08:43:19;22.70;77.50
49379;DHT22;35254;47.990;-1.608;2022-08-19T08:46:13;22.70;78.50
49379;DHT22;35254;47.990;-1.608;2022-08-19T08:51:16;23.00;76.10
49379;DHT22;35254;47.990;-1.608;2022-08-19T08:53:46;22.70;76.70
49379;DHT22;35254;47.990;-1.608;2022-08-19T08:56:13;22.70;77.00
49379;DHT22;35254;47.990;-1.608;2022-08-19T09:01:19;22.80;76.70
49379;DHT22;35254;47.990;-1.608;2022-08-19T09:03:46;22.90;76.80
49379;DHT22;35254;47.990;-1.608;2022-08-19T09:06:14;23.00;77.00
49379;DHT22;35254;47.990;-1.608;2022-08-19T09:08:57;23.00;76.70
49379;DHT22;35254;47.990;-1.608;2022-08-19T09:16:37;23.20;75.60
49379;DHT22;35254;47.990;-1.608;2022-08-19T09:19:09;23.20;75.50
49379;DHT22;35254;47.990;-1.608;2022-08-19T09:21:36;23.20;74.80
49379;DHT22;35254;47.990;-1.608;2022-08-19T09:24:02;23.40;75.20
49379;DHT22;35254;47.990;-1.608;2022-08-19T09:26:30;23.70;74.80
49379;DHT22;35254;47.990;-1.608;2022-08-19T09:28:58;23.80;73.80
49379;DHT22;35254;47.990;-1.608;2022-08-19T09:31:26;23.90;73.70
49379;DHT22;35254;47.990;-1.608;2022-08-19T09:33:53;24.10;72.90
49379;DHT22;35254;47.990;-1.608;2022-08-19T09:36:23;24.20;72.80
49379;DHT22;35254;47.990;-1.608;2022-08-19T09:38:50;24.60;73.70
49379;DHT22;35254;47.990;-1.608;2022-08-19T09:41:19;24.70;72.00
49379;DHT22;35254;47.990;-1.608;2022-08-19T09:43:47;24.80;73.20
49379;DHT22;35254;47.990;-1.608;2022-08-19T09:46:13;25.20;72.50
49379;DHT22;35254;47.990;-1.608;2022-08-19T09:48:42;25.10;71.00
49379;DHT22;35254;47.990;-1.608;2022-08-19T09:51:12;25.40;71.70
49379;DHT22;35254;47.990;-1.608;2022-08-19T09:53:41;26.00;71.60
49379;DHT22;35254;47.990;-1.608;2022-08-19T09:56:07;26.50;69.50
49379;DHT22;35254;47.990;-1.608;2022-08-19T09:58:33;26.20;68.50
49379;DHT22;35254;47.990;-1.608;2022-08-19T10:01:00;25.80;68.90
49379;DHT22;35254;47.990;-1.608;2022-08-19T10:03:28;25.60;68.90
49379;DHT22;35254;47.990;-1.608;2022-08-19T10:05:55;25.20;68.90
49379;DHT22;35254;47.990;-1.608;2022-08-19T10:08:24;24.90;69.10
49379;DHT22;35254;47.990;-1.608;2022-08-19T10:10:51;24.70;69.40
49379;DHT22;35254;47.990;-1.608;2022-08-19T10:13:19;24.50;70.20
49379;DHT22;35254;47.990;-1.608;2022-08-19T10:15:51;24.40;70.10
49379;DHT22;35254;47.990;-1.608;2022-08-19T10:18:18;24.20;70.70
49379;DHT22;35254;47.990;-1.608;2022-08-19T10:20:45;24.60;72.00
49379;DHT22;35254;47.990;-1.608;2022-08-19T10:23:12;25.20;71.60
49379;DHT22;35254;47.990;-1.608;2022-08-19T10:25:38;25.40;70.90
49379;DHT22;35254;47.990;-1.608;2022-08-19T10:28:04;25.70;70.80
49379;DHT22;35254;47.990;-1.608;2022-08-19T10:30:33;26.30;68.40
49379;DHT22;35254;47.990;-1.608;2022-08-19T10:32:59;26.60;67.80
49379;DHT22;35254;47.990;-1.608;2022-08-19T10:35:24;26.70;66.40
49379;DHT22;35254;47.990;-1.608;2022-08-19T10:37:52;26.70;65.90
49379;DHT22;35254;47.990;-1.608;2022-08-19T10:40:18;26.40;65.60
49379;DHT22;35254;47.990;-1.608;2022-08-19T10:42:44;26.10;65.70
49379;DHT22;35254;47.990;-1.608;2022-08-19T10:45:10;25.90;66.30
49379;DHT22;35254;47.990;-1.608;2022-08-19T10:47:36;25.70;65.40
49379;DHT22;35254;47.990;-1.608;2022-08-19T10:50:03;25.30;65.80
49379;DHT22;35254;47.990;-1.608;2022-08-19T10:52:49;25.20;66.90
49379;DHT22;35254;47.990;-1.608;2022-08-19T10:55:16;25.00;66.80
49379;DHT22;35254;47.990;-1.608;2022-08-19T10:58:00;25.00;67.20
49379;DHT22;35254;47.990;-1.608;2022-08-19T11:00:26;25.00;67.30
49379;DHT22;35254;47.990;-1.608;2022-08-19T11:02:51;24.80;66.90
49379;DHT22;35254;47.990;-1.608;2022-08-19T11:05:18;24.80;67.30
49379;DHT22;35254;47.990;-1.608;2022-08-19T11:07:45;24.70;67.80
49379;DHT22;35254;47.990;-1.608;2022-08-19T11:10:13;24.90;69.00
49379;DHT22;35254;47.990;-1.608;2022-08-19T11:12:40;25.20;69.30
49379;DHT22;35254;47.990;-1.608;2022-08-19T11:15:07;25.70;70.40
49379;DHT22;35254;47.990;-1.608;2022-08-19T11:17:34;26.20;69.10
49379;DHT22;35254;47.990;-1.608;2022-08-19T11:20:01;26.20;67.60
49379;DHT22;35254;47.990;-1.608;2022-08-19T11:22:29;26.20;67.40
49379;DHT22;35254;47.990;-1.608;2022-08-19T11:24:55;26.00;67.20
49379;DHT22;35254;47.990;-1.608;2022-08-19T11:27:21;25.80;67.30
49379;DHT22;35254;47.990;-1.608;2022-08-19T11:29:47;25.70;66.80
49379;DHT22;35254;47.990;-1.608;2022-08-19T11:32:12;25.50;67.50
49379;DHT22;35254;47.990;-1.608;2022-08-19T11:34:38;25.60;67.60
49379;DHT22;35254;47.990;-1.608;2022-08-19T11:37:05;25.80;67.40
49379;DHT22;35254;47.990;-1.608;2022-08-19T11:39:33;26.00;67.10
49379;DHT22;35254;47.990;-1.608;2022-08-19T11:41:59;26.20;66.30
49379;DHT22;35254;47.990;-1.608;2022-08-19T11:44:26;26.20;65.70
49379;DHT22;35254;47.990;-1.608;2022-08-19T11:46:52;25.80;64.80
49379;DHT22;35254;47.990;-1.608;2022-08-19T11:49:19;25.60;65.00
49379;DHT22;35254;47.990;-1.608;2022-08-19T11:51:45;25.30;65.90
49379;DHT22;35254;47.990;-1.608;2022-08-19T11:54:12;25.30;66.20
49379;DHT22;35254;47.990;-1.608;2022-08-19T11:56:39;25.20;66.60
49379;DHT22;35254;47.990;-1.608;2022-08-19T11:59:05;25.20;66.60
49379;DHT22;35254;47.990;-1.608;2022-08-19T12:01:31;25.20;66.70
49379;DHT22;35254;47.990;-1.608;2022-08-19T12:03:57;24.90;66.60
49379;DHT22;35254;47.990;-1.608;2022-08-19T12:06:29;24.80;66.90
49379;DHT22;35254;47.990;-1.608;2022-08-19T12:08:58;24.70;67.50
49379;DHT22;35254;47.990;-1.608;2022-08-19T12:11:25;24.70;68.50
49379;DHT22;35254;47.990;-1.608;2022-08-19T12:13:51;24.60;69.10
49379;DHT22;35254;47.990;-1.608;2022-08-19T12:16:19;24.70;69.20
49379;DHT22;35254;47.990;-1.608;2022-08-19T12:18:46;24.70;70.00
49379;DHT22;35254;47.990;-1.608;2022-08-19T12:21:17;24.70;70.20
49379;DHT22;35254;47.990;-1.608;2022-08-19T12:23:46;24.80;70.40
49379;DHT22;35254;47.990;-1.608;2022-08-19T12:26:13;24.90;70.40
49379;DHT22;35254;47.990;-1.608;2022-08-19T12:28:39;25.00;70.70
49379;DHT22;35254;47.990;-1.608;2022-08-19T12:31:05;25.20;70.90
49379;DHT22;35254;47.990;-1.608;2022-08-19T12:33:31;25.40;70.80
49379;DHT22;35254;47.990;-1.608;2022-08-19T12:36:01;25.50;71.00
49379;DHT22;35254;47.990;-1.608;2022-08-19T12:38:28;25.70;70.70
49379;DHT22;35254;47.990;-1.608;2022-08-19T12:40:54;25.70;69.50
49379;DHT22;35254;47.990;-1.608;2022-08-19T12:43:19;25.50;69.20
49379;DHT22;35254;47.990;-1.608;2022-08-19T12:45:46;25.20;69.50
49379;DHT22;35254;47.990;-1.608;2022-08-19T12:48:12;25.20;69.60
49379;DHT22;35254;47.990;-1.608;2022-08-19T12:50:42;24.90;70.00
49379;DHT22;35254;47.990;-1.608;2022-08-19T12:53:08;24.60;70.30
49379;DHT22;35254;47.990;-1.608;2022-08-19T12:55:34;24.30;71.00
49379;DHT22;35254;47.990;-1.608;2022-08-19T12:57:59;24.10;71.60
49379;DHT22;35254;47.990;-1.608;2022-08-19T13:00:27;24.00;72.30
49379;DHT22;35254;47.990;-1.608;2022-08-19T13:02:53;23.70;72.70
49379;DHT22;35254;47.990;-1.608;2022-08-19T13:05:26;23.70;73.00
49379;DHT22;35254;47.990;-1.608;2022-08-19T13:07:54;23.70;73.00
49379;DHT22;35254;47.990;-1.608;2022-08-19T13:10:29;23.60;73.20
49379;DHT22;35254;47.990;-1.608;2022-08-19T13:12:55;23.60;73.50
49379;DHT22;35254;47.990;-1.608;2022-08-19T13:15:23;23.50;74.10
49379;DHT22;35254;47.990;-1.608;2022-08-19T13:17:50;23.50;74.30
49379;DHT22;35254;47.990;-1.608;2022-08-19T13:20:18;23.60;74.80
49379;DHT22;35254;47.990;-1.608;2022-08-19T13:22:45;23.70;74.20
49379;DHT22;35254;47.990;-1.608;2022-08-19T13:25:12;23.70;74.10
49379;DHT22;35254;47.990;-1.608;2022-08-19T13:27:38;23.70;74.30
49379;DHT22;35254;47.990;-1.608;2022-08-19T13:30:07;23.70;74.20
49379;DHT22;35254;47.990;-1.608;2022-08-19T13:32:52;23.80;74.00
49379;DHT22;35254;47.990;-1.608;2022-08-19T13:35:58;24.20;74.60
49379;DHT22;35254;47.990;-1.608;2022-08-19T13:38:23;24.50;74.10
49379;DHT22;35254;47.990;-1.608;2022-08-19T13:40:51;24.60;72.90
49379;DHT22;35254;47.990;-1.608;2022-08-19T13:43:18;24.50;72.80
49379;DHT22;35254;47.990;-1.608;2022-08-19T13:45:45;24.30;73.10
49379;DHT22;35254;47.990;-1.608;2022-08-19T13:48:11;24.30;73.00
49379;DHT22;35254;47.990;-1.608;2022-08-19T13:50:43;24.20;72.70
49379;DHT22;35254;47.990;-1.608;2022-08-19T13:53:10;24.10;72.80
49379;DHT22;35254;47.990;-1.608;2022-08-19T13:55:43;24.10;72.80
49379;DHT22;35254;47.990;-1.608;2022-08-19T13:58:09;23.90;73.00
49379;DHT22;35254;47.990;-1.608;2022-08-19T14:00:38;23.80;73.40
49379;DHT22;35254;47.990;-1.608;2022-08-19T14:03:05;23.80;74.00
49379;DHT22;35254;47.990;-1.608;2022-08-19T14:05:32;23.80;74.00
49379;DHT22;35254;47.990;-1.608;2022-08-19T14:07:57;23.70;74.30
49379;DHT22;35254;47.990;-1.608;2022-08-19T14:10:24;23.70;74.40
49379;DHT22;35254;47.990;-1.608;2022-08-19T14:12:53;23.60;74.50
49379;DHT22;35254;47.990;-1.608;2022-08-19T14:15:20;23.60;74.40
49379;DHT22;35254;47.990;-1.608;2022-08-19T14:17:46;23.60;74.70
49379;DHT22;35254;47.990;-1.608;2022-08-19T14:20:14;23.60;74.80
49379;DHT22;35254;47.990;-1.608;2022-08-19T14:22:42;23.60;74.90
49379;DHT22;35254;47.990;-1.608;2022-08-19T14:25:11;23.70;75.10
49379;DHT22;35254;47.990;-1.608;2022-08-19T14:27:38;23.70;75.00
49379;DHT22;35254;47.990;-1.608;2022-08-19T14:30:05;23.70;75.00
49379;DHT22;35254;47.990;-1.608;2022-08-19T14:32:32;23.80;74.90
49379;DHT22;35254;47.990;-1.608;2022-08-19T14:34:58;23.90;74.80
49379;DHT22;35254;47.990;-1.608;2022-08-19T14:37:24;23.80;74.50
49379;DHT22;35254;47.990;-1.608;2022-08-19T14:39:49;23.80;75.00
49379;DHT22;35254;47.990;-1.608;2022-08-19T14:42:15;23.90;75.10
49379;DHT22;35254;47.990;-1.608;2022-08-19T14:44:42;23.90;75.00
49379;DHT22;35254;47.990;-1.608;2022-08-19T14:47:08;23.90;75.00
49379;DHT22;35254;47.990;-1.608;2022-08-19T14:49:34;23.80;75.30
49379;DHT22;35254;47.990;-1.608;2022-08-19T14:52:00;23.90;75.30
49379;DHT22;35254;47.990;-1.608;2022-08-19T14:54:26;23.90;75.50
49379;DHT22;35254;47.990;-1.608;2022-08-19T14:56:52;24.10;75.50
49379;DHT22;35254;47.990;-1.608;2022-08-19T14:59:17;24.20;75.60
49379;DHT22;35254;47.990;-1.608;2022-08-19T15:01:43;24.20;75.00
49379;DHT22;35254;47.990;-1.608;2022-08-19T15:04:09;24.10;74.80
49379;DHT22;35254;47.990;-1.608;2022-08-19T15:06:35;23.90;74.90
49379;DHT22;35254;47.990;-1.608;2022-08-19T15:09:01;23.90;75.00
49379;DHT22;35254;47.990;-1.608;2022-08-19T15:11:28;23.90;74.80
49379;DHT22;35254;47.990;-1.608;2022-08-19T15:13:57;23.70;74.80
49379;DHT22;35254;47.990;-1.608;2022-08-19T15:16:24;23.70;75.20
49379;DHT22;35254;47.990;-1.608;2022-08-19T15:18:53;23.80;75.60
49379;DHT22;35254;47.990;-1.608;2022-08-19T15:21:20;24.00;75.80
49379;DHT22;35254;47.990;-1.608;2022-08-19T15:23:47;24.10;75.90
49379;DHT22;35254;47.990;-1.608;2022-08-19T15:26:14;24.20;76.00
49379;DHT22;35254;47.990;-1.608;2022-08-19T15:28:41;24.40;76.40
49379;DHT22;35254;47.990;-1.608;2022-08-19T15:31:07;24.70;76.20
49379;DHT22;35254;47.990;-1.608;2022-08-19T15:33:34;24.80;76.00
49379;DHT22;35254;47.990;-1.608;2022-08-19T15:36:03;24.90;75.20
49379;DHT22;35254;47.990;-1.608;2022-08-19T15:38:30;24.70;74.30
49379;DHT22;35254;47.990;-1.608;2022-08-19T15:40:55;24.60;74.20
49379;DHT22;35254;47.990;-1.608;2022-08-19T15:43:42;24.20;73.90